Absecon City, New Jersey
Current Conditions -  °F | °C
As of 8:54 AM on Friday 19 Dec 2014 (Local Time) from KACY Reporting Station
Overcast Overcast  
Wind Chill: 28°   Ceiling: 3600
Heat Index: 36°   Visibility: 10mi
Dew Point: 26°   Wind: 12mph
Humidity: 67%   Direction: 280°W
Pressure: 30.07"   Gusts: NA
Location:  39.4315°N, 74.5003°W
Report Text: KACY 191354Z 28010KT 10SM OVC036 02/M03 A3007 RMK AO2 SLP184 T00221033
Loading
Personal Weather Stations






























Interactive Weather Map New forecast layout! Learn more

10-Day Weather Forecast

Advertisements
Track Severe Weather on mobile